Terminal Aerodrome Forecast
Issued by NWS Portland, OR

Home | Current Version | Previous Version | Text Only | Print | Product List | Glossary On
Versions: 1 2 3 4 5 6 7 8 9 10 11 12 13 14 15 16 17 18 19 20 21
000
FTUS46 KPQR 242332
TAFTTD
TAF
KTTD 242332Z 2500/2524 25010G18KT P6SM -SHRA SCT025 BKN045 BKN060
     FM250100 23009KT P6SM -SHRA SCT025 BKN045
     FM250800 VRB02KT P6SM -SHRA SCT025 BKN045
     FM251500 VRB03KT P6SM -SHRA SCT025 OVC035
     FM251900 23006KT P6SM -SHRA BKN050=

USA.gov is the U.S. government's official web portal to all federal, state and local government web resources and services.